PWSweather.com
Personal Weather Stations
Station Observations
ILOMBARD30
LodiIT 26900

LodiIT 26900

Lat: 45.2993, Lon: 9.5207

Elevation: 255

Station Type: Davis Vantege Pro2 Plus 24h

http://www.meteo-iw2gob.it

High Low Average
Temperature 73.8°F23.2°F 48.4°F9.1°F 60.4°F15.8°F
Dew Point 46.8°F8.2°F 14.2°F-9.9°F 33.6°F0.9°F
Winds 17.3 mph -27.8 mph - Calm Calm 6.3 mph 10.1 mph
Wind Gusts 26.5 mph42.6 mph -- 9.2 mph14.8 mph
Humidity 63% 18% 39%
Pressure 29.96 in1014.60 in 29.66 in1004.40 in -
Precipitation 0.00 in0.00 in - -
Hour Temp Dew Point Humidity Winds Wind Gusts Pressure Precip Precip Rate Daily Precip Total
12:00 AM 57.9°F14.4°C 34.9°F1.6°C 42% 2.3 mph N3.7 kmh N 3.5 mph5.6 kmh 29.96 in1014.6 mb - 0.00 in0.0 mm 0.00 in0.0 mm
12:05 AM 57.3°F14.1°C 35.0°F1.7°C 43% 2.3 mph NNW3.7 kmh NNW 2.3 mph3.7 kmh 29.96 in1014.6 mb - 0.00 in0.0 mm 0.00 in0.0 mm
12:10 AM 57.0°F13.9°C 34.7°F1.5°C 43% 1.2 mph NNW1.9 kmh NNW 2.3 mph3.7 kmh 29.96 in1014.6 mb - 0.00 in0.0 mm 0.00 in0.0 mm
12:15 AM 56.8°F13.8°C 34.5°F1.4°C 43% Calm Calm 1.2 mph1.9 kmh 29.96 in1014.6 mb - 0.00 in0.0 mm 0.00 in0.0 mm
12:20 AM 56.6°F13.7°C 34.9°F1.6°C 44% 1.2 mph NNW1.9 kmh NNW 1.2 mph1.9 kmh 29.96 in1014.6 mb - 0.00 in0.0 mm 0.00 in0.0 mm
12:25 AM 56.3°F13.5°C 34.6°F1.4°C 44% 1.2 mph NNW1.9 kmh NNW 2.3 mph3.7 kmh 29.96 in1014.6 mb - 0.00 in0.0 mm 0.00 in0.0 mm
12:30 AM 56.0°F13.3°C 34.4°F1.3°C 44% 1.2 mph NNW1.9 kmh NNW 2.3 mph3.7 kmh 29.95 in1014.2 mb - 0.00 in0.0 mm 0.00 in0.0 mm
12:35 AM 55.8°F13.2°C 34.8°F1.6°C 45% 1.2 mph NNW1.9 kmh NNW 1.2 mph1.9 kmh 29.95 in1014.2 mb - 0.00 in0.0 mm 0.00 in0.0 mm
12:40 AM 55.7°F13.2°C 34.1°F1.2°C 44% Calm Calm -- 29.95 in1014.2 mb - 0.00 in0.0 mm 0.00 in0.0 mm
12:45 AM 55.5°F13.1°C 34.5°F1.4°C 45% Calm Calm -- 29.95 in1014.2 mb - 0.00 in0.0 mm 0.00 in0.0 mm
12:50 AM 55.4°F13.0°C 34.4°F1.3°C 45% 2.3 mph NNW3.7 kmh NNW 3.5 mph5.6 kmh 29.95 in1014.2 mb - 0.00 in0.0 mm 0.00 in0.0 mm
12:55 AM 55.3°F12.9°C 34.8°F1.6°C 46% 2.3 mph NNW3.7 kmh NNW 3.5 mph5.6 kmh 29.95 in1014.2 mb - 0.00 in0.0 mm 0.00 in0.0 mm
01:00 AM 55.0°F12.8°C 35.7°F2.1°C 48% 3.5 mph NNW5.6 kmh NNW 3.5 mph5.6 kmh 29.95 in1014.2 mb - 0.00 in0.0 mm 0.00 in0.0 mm
01:05 AM 54.7°F12.6°C 35.4°F1.9°C 48% 2.3 mph N3.7 kmh N 3.5 mph5.6 kmh 29.95 in1014.2 mb - 0.00 in0.0 mm 0.00 in0.0 mm
01:10 AM 54.3°F12.4°C 34.5°F1.4°C 47% 2.3 mph N3.7 kmh N 3.5 mph5.6 kmh 29.94 in1013.9 mb - 0.00 in0.0 mm 0.00 in0.0 mm
01:15 AM 54.1°F12.3°C 34.8°F1.6°C 48% 2.3 mph N3.7 kmh N 3.5 mph5.6 kmh 29.94 in1013.9 mb - 0.00 in0.0 mm 0.00 in0.0 mm
01:20 AM 53.9°F12.2°C 34.6°F1.4°C 48% 2.3 mph NW3.7 kmh NW 3.5 mph5.6 kmh 29.94 in1013.9 mb - 0.00 in0.0 mm 0.00 in0.0 mm
01:25 AM 53.7°F12.1°C 35.0°F1.7°C 49% 3.5 mph NNW5.6 kmh NNW 3.5 mph5.6 kmh 29.94 in1013.9 mb - 0.00 in0.0 mm 0.00 in0.0 mm
01:30 AM 53.7°F12.1°C 35.0°F1.7°C 49% 2.3 mph NNW3.7 kmh NNW 3.5 mph5.6 kmh 29.94 in1013.9 mb - 0.00 in0.0 mm 0.00 in0.0 mm
01:35 AM 53.7°F12.1°C 35.0°F1.7°C 49% 2.3 mph NNW3.7 kmh NNW 3.5 mph5.6 kmh 29.94 in1013.9 mb - 0.00 in0.0 mm 0.00 in0.0 mm
01:40 AM 53.8°F12.1°C 34.6°F1.4°C 48% 1.2 mph NNW1.9 kmh NNW 2.3 mph3.7 kmh 29.93 in1013.5 mb - 0.00 in0.0 mm 0.00 in0.0 mm
01:45 AM 53.9°F12.2°C 34.7°F1.5°C 48% 2.3 mph NW3.7 kmh NW 3.5 mph5.6 kmh 29.94 in1013.9 mb - 0.00 in0.0 mm 0.00 in0.0 mm
01:50 AM 54.1°F12.3°C 34.3°F1.3°C 47% 3.5 mph NW5.6 kmh NW 3.5 mph5.6 kmh 29.94 in1013.9 mb - 0.00 in0.0 mm 0.00 in0.0 mm
01:55 AM 54.3°F12.4°C 34.4°F1.3°C 47% 2.3 mph NW3.7 kmh NW 3.5 mph5.6 kmh 29.93 in1013.5 mb - 0.00 in0.0 mm 0.00 in0.0 mm
02:00 AM 54.4°F12.4°C 34.6°F1.4°C 47% 1.2 mph NW1.9 kmh NW 2.3 mph3.7 kmh 29.93 in1013.5 mb - 0.00 in0.0 mm 0.00 in0.0 mm
02:05 AM 54.4°F12.4°C 35.1°F1.7°C 48% 2.3 mph NW3.7 kmh NW 3.5 mph5.6 kmh 29.93 in1013.5 mb - 0.00 in0.0 mm 0.00 in0.0 mm
02:10 AM 54.3°F12.4°C 34.5°F1.4°C 47% 3.5 mph NW5.6 kmh NW 4.6 mph7.4 kmh 29.93 in1013.5 mb - 0.00 in0.0 mm 0.00 in0.0 mm
02:15 AM 54.2°F12.3°C 34.9°F1.6°C 48% 2.3 mph NW3.7 kmh NW 3.5 mph5.6 kmh 29.93 in1013.5 mb - 0.00 in0.0 mm 0.00 in0.0 mm
02:20 AM 54.1°F12.3°C 34.8°F1.6°C 48% 1.2 mph NW1.9 kmh NW 2.3 mph3.7 kmh 29.93 in1013.5 mb - 0.00 in0.0 mm 0.00 in0.0 mm
02:25 AM 54.0°F12.2°C 34.7°F1.5°C 48% 2.3 mph NW3.7 kmh NW 3.5 mph5.6 kmh 29.93 in1013.5 mb - 0.00 in0.0 mm 0.00 in0.0 mm
02:30 AM 53.9°F12.2°C 34.1°F1.2°C 47% 1.2 mph NW1.9 kmh NW 2.3 mph3.7 kmh 29.92 in1013.2 mb - 0.00 in0.0 mm 0.00 in0.0 mm
02:35 AM 54.0°F12.2°C 34.7°F1.5°C 48% 2.3 mph W3.7 kmh W 3.5 mph5.6 kmh 29.92 in1013.2 mb - 0.00 in0.0 mm 0.00 in0.0 mm
02:40 AM 54.2°F12.3°C 33.9°F1.1°C 46% 2.3 mph W3.7 kmh W 3.5 mph5.6 kmh 29.92 in1013.2 mb - 0.00 in0.0 mm 0.00 in0.0 mm
02:45 AM 54.6°F12.6°C 33.6°F0.9°C 45% 2.3 mph NW3.7 kmh NW 3.5 mph5.6 kmh 29.92 in1013.2 mb - 0.00 in0.0 mm 0.00 in0.0 mm
02:50 AM 54.9°F12.7°C 33.9°F1.1°C 45% 1.2 mph NW1.9 kmh NW 3.5 mph5.6 kmh 29.92 in1013.2 mb - 0.00 in0.0 mm 0.00 in0.0 mm
02:55 AM 55.1°F12.8°C 33.5°F0.8°C 44% 2.3 mph WSW3.7 kmh WSW 3.5 mph5.6 kmh 29.92 in1013.2 mb - 0.00 in0.0 mm 0.00 in0.0 mm
03:00 AM 55.2°F12.9°C 33.7°F0.9°C 44% 2.3 mph WSW3.7 kmh WSW 3.5 mph5.6 kmh 29.92 in1013.2 mb - 0.00 in0.0 mm 0.00 in0.0 mm
03:05 AM 55.4°F13.0°C 33.8°F1.0°C 44% 1.2 mph W1.9 kmh W 2.3 mph3.7 kmh 29.92 in1013.2 mb - 0.00 in0.0 mm 0.00 in0.0 mm
03:10 AM 55.5°F13.1°C 33.9°F1.1°C 44% 1.2 mph W1.9 kmh W 3.5 mph5.6 kmh 29.91 in1012.9 mb - 0.00 in0.0 mm 0.00 in0.0 mm
03:15 AM 55.6°F13.1°C 34.0°F1.1°C 44% 2.3 mph WSW3.7 kmh WSW 3.5 mph5.6 kmh 29.91 in1012.9 mb - 0.00 in0.0 mm 0.00 in0.0 mm
03:20 AM 55.5°F13.1°C 33.9°F1.1°C 44% 1.2 mph WSW1.9 kmh WSW 2.3 mph3.7 kmh 29.91 in1012.9 mb - 0.00 in0.0 mm 0.00 in0.0 mm
03:25 AM 55.3°F12.9°C 33.8°F1.0°C 44% 2.3 mph WSW3.7 kmh WSW 3.5 mph5.6 kmh 29.91 in1012.9 mb - 0.00 in0.0 mm 0.00 in0.0 mm
03:30 AM 55.0°F12.8°C 34.6°F1.4°C 46% 3.5 mph N5.6 kmh N 3.5 mph5.6 kmh 29.91 in1012.9 mb - 0.00 in0.0 mm 0.00 in0.0 mm
03:35 AM 54.5°F12.5°C 36.2°F2.3°C 50% 2.3 mph N3.7 kmh N 3.5 mph5.6 kmh 29.91 in1012.9 mb - 0.00 in0.0 mm 0.00 in0.0 mm
03:40 AM 53.7°F12.1°C 35.0°F1.7°C 49% 2.3 mph N3.7 kmh N 2.3 mph3.7 kmh 29.91 in1012.9 mb - 0.00 in0.0 mm 0.00 in0.0 mm
03:45 AM 53.1°F11.7°C 34.9°F1.6°C 50% Calm Calm 1.2 mph1.9 kmh 29.91 in1012.9 mb - 0.00 in0.0 mm 0.00 in0.0 mm
03:50 AM 52.8°F11.6°C 34.2°F1.2°C 49% 2.3 mph WSW3.7 kmh WSW 3.5 mph5.6 kmh 29.90 in1012.5 mb - 0.00 in0.0 mm 0.00 in0.0 mm
03:55 AM 52.7°F11.5°C 34.1°F1.2°C 49% 1.2 mph WSW1.9 kmh WSW 2.3 mph3.7 kmh 29.91 in1012.9 mb - 0.00 in0.0 mm 0.00 in0.0 mm
04:00 AM 52.7°F11.5°C 34.1°F1.2°C 49% Calm Calm -- 29.90 in1012.5 mb - 0.00 in0.0 mm 0.00 in0.0 mm
04:05 AM 52.8°F11.6°C 34.2°F1.2°C 49% 2.3 mph WSW3.7 kmh WSW 3.5 mph5.6 kmh 29.90 in1012.5 mb - 0.00 in0.0 mm 0.00 in0.0 mm
04:10 AM 52.8°F11.6°C 34.2°F1.2°C 49% 2.3 mph WSW3.7 kmh WSW 3.5 mph5.6 kmh 29.90 in1012.5 mb - 0.00 in0.0 mm 0.00 in0.0 mm
04:15 AM 52.8°F11.6°C 34.2°F1.2°C 49% 2.3 mph WSW3.7 kmh WSW 2.3 mph3.7 kmh 29.90 in1012.5 mb - 0.00 in0.0 mm 0.00 in0.0 mm
04:20 AM 52.7°F11.5°C 34.1°F1.2°C 49% 2.3 mph WSW3.7 kmh WSW 3.5 mph5.6 kmh 29.90 in1012.5 mb - 0.00 in0.0 mm 0.00 in0.0 mm
04:25 AM 52.6°F11.4°C 34.5°F1.4°C 50% 2.3 mph WSW3.7 kmh WSW 3.5 mph5.6 kmh 29.90 in1012.5 mb - 0.00 in0.0 mm 0.00 in0.0 mm
04:30 AM 52.3°F11.3°C 34.2°F1.2°C 50% 1.2 mph WSW1.9 kmh WSW 2.3 mph3.7 kmh 29.90 in1012.5 mb - 0.00 in0.0 mm 0.00 in0.0 mm
04:35 AM 51.9°F11.1°C 34.3°F1.3°C 51% Calm Calm -- 29.90 in1012.5 mb - 0.00 in0.0 mm 0.00 in0.0 mm
04:40 AM 51.6°F10.9°C 34.5°F1.4°C 52% 3.5 mph N5.6 kmh N 3.5 mph5.6 kmh 29.91 in1012.9 mb - 0.00 in0.0 mm 0.00 in0.0 mm
04:45 AM 50.9°F10.5°C 34.9°F1.6°C 54% 1.2 mph N1.9 kmh N 2.3 mph3.7 kmh 29.91 in1012.9 mb - 0.00 in0.0 mm 0.00 in0.0 mm
04:50 AM 50.6°F10.3°C 35.0°F1.7°C 55% Calm Calm -- 29.90 in1012.5 mb - 0.00 in0.0 mm 0.00 in0.0 mm
04:55 AM 50.2°F10.1°C 34.7°F1.5°C 55% Calm Calm -- 29.90 in1012.5 mb - 0.00 in0.0 mm 0.00 in0.0 mm
05:00 AM 49.9°F9.9°C 34.3°F1.3°C 55% 1.2 mph N1.9 kmh N 1.2 mph1.9 kmh 29.90 in1012.5 mb - 0.00 in0.0 mm 0.00 in0.0 mm
05:05 AM 49.6°F9.8°C 34.1°F1.2°C 55% 1.2 mph N1.9 kmh N 2.3 mph3.7 kmh 29.90 in1012.5 mb - 0.00 in0.0 mm 0.00 in0.0 mm
05:10 AM 49.5°F9.7°C 34.4°F1.3°C 56% 2.3 mph WSW3.7 kmh WSW 3.5 mph5.6 kmh 29.89 in1012.2 mb - 0.00 in0.0 mm 0.00 in0.0 mm
05:15 AM 49.4°F9.7°C 34.3°F1.3°C 56% 2.3 mph WSW3.7 kmh WSW 3.5 mph5.6 kmh 29.89 in1012.2 mb - 0.00 in0.0 mm 0.00 in0.0 mm
05:20 AM 49.3°F9.6°C 34.3°F1.3°C 56% 2.3 mph SW3.7 kmh SW 3.5 mph5.6 kmh 29.89 in1012.2 mb - 0.00 in0.0 mm 0.00 in0.0 mm
05:25 AM 49.3°F9.6°C 34.3°F1.3°C 56% 2.3 mph SW3.7 kmh SW 3.5 mph5.6 kmh 29.89 in1012.2 mb - 0.00 in0.0 mm 0.00 in0.0 mm
05:30 AM 49.3°F9.6°C 34.3°F1.3°C 56% 1.2 mph SW1.9 kmh SW 2.3 mph3.7 kmh 29.89 in1012.2 mb - 0.00 in0.0 mm 0.00 in0.0 mm
05:35 AM 49.3°F9.6°C 34.7°F1.5°C 57% Calm Calm -- 29.89 in1012.2 mb - 0.00 in0.0 mm 0.00 in0.0 mm
05:40 AM 49.3°F9.6°C 35.1°F1.7°C 58% Calm Calm -- 29.89 in1012.2 mb - 0.00 in0.0 mm 0.00 in0.0 mm
05:45 AM 49.2°F9.6°C 34.6°F1.4°C 57% Calm Calm -- 29.89 in1012.2 mb - 0.00 in0.0 mm 0.00 in0.0 mm
05:50 AM 49.1°F9.5°C 34.5°F1.4°C 57% 2.3 mph SW3.7 kmh SW 3.5 mph5.6 kmh 29.89 in1012.2 mb - 0.00 in0.0 mm 0.00 in0.0 mm
05:55 AM 49.3°F9.6°C 34.7°F1.5°C 57% 1.2 mph SW1.9 kmh SW 2.3 mph3.7 kmh 29.89 in1012.2 mb - 0.00 in0.0 mm 0.00 in0.0 mm
06:00 AM 49.4°F9.7°C 34.4°F1.3°C 56% Calm Calm -- 29.89 in1012.2 mb - 0.00 in0.0 mm 0.00 in0.0 mm
06:05 AM 49.5°F9.7°C 34.4°F1.3°C 56% Calm Calm -- 29.89 in1012.2 mb - 0.00 in0.0 mm 0.00 in0.0 mm
06:10 AM 49.4°F9.7°C 34.8°F1.6°C 57% 1.2 mph SW1.9 kmh SW 2.3 mph3.7 kmh 29.89 in1012.2 mb - 0.00 in0.0 mm 0.00 in0.0 mm
06:15 AM 49.4°F9.7°C 35.2°F1.8°C 58% 1.2 mph SW1.9 kmh SW 2.3 mph3.7 kmh 29.89 in1012.2 mb - 0.00 in0.0 mm 0.00 in0.0 mm
06:20 AM 49.3°F9.6°C 35.1°F1.7°C 58% 1.2 mph SW1.9 kmh SW 1.2 mph1.9 kmh 29.89 in1012.2 mb - 0.00 in0.0 mm 0.00 in0.0 mm
06:25 AM 49.2°F9.6°C 35.0°F1.7°C 58% Calm Calm 1.2 mph1.9 kmh 29.89 in1012.2 mb - 0.00 in0.0 mm 0.00 in0.0 mm
06:30 AM 49.2°F9.6°C 35.4°F1.9°C 59% Calm Calm -- 29.89 in1012.2 mb - 0.00 in0.0 mm 0.00 in0.0 mm
06:35 AM 49.1°F9.5°C 35.4°F1.9°C 59% 2.3 mph SW3.7 kmh SW 3.5 mph5.6 kmh 29.89 in1012.2 mb - 0.00 in0.0 mm 0.00 in0.0 mm
06:40 AM 49.0°F9.4°C 35.3°F1.8°C 59% 2.3 mph SW3.7 kmh SW 2.3 mph3.7 kmh 29.89 in1012.2 mb - 0.00 in0.0 mm 0.00 in0.0 mm
06:45 AM 49.0°F9.4°C 35.3°F1.8°C 59% 1.2 mph SW1.9 kmh SW 2.3 mph3.7 kmh 29.89 in1012.2 mb - 0.00 in0.0 mm 0.00 in0.0 mm
06:50 AM 48.9°F9.4°C 35.2°F1.8°C 59% 1.2 mph SW1.9 kmh SW 2.3 mph3.7 kmh 29.89 in1012.2 mb - 0.00 in0.0 mm 0.00 in0.0 mm
06:55 AM 49.1°F9.5°C 35.4°F1.9°C 59% 2.3 mph SW3.7 kmh SW 3.5 mph5.6 kmh 29.89 in1012.2 mb - 0.00 in0.0 mm 0.00 in0.0 mm
07:00 AM 49.2°F9.6°C 35.5°F1.9°C 59% 2.3 mph SW3.7 kmh SW 3.5 mph5.6 kmh 29.89 in1012.2 mb - 0.00 in0.0 mm 0.00 in0.0 mm
07:05 AM 49.2°F9.6°C 35.5°F1.9°C 59% 2.3 mph SW3.7 kmh SW 3.5 mph5.6 kmh 29.89 in1012.2 mb - 0.00 in0.0 mm 0.00 in0.0 mm
07:10 AM 49.1°F9.5°C 35.4°F1.9°C 59% 2.3 mph S3.7 kmh S 3.5 mph5.6 kmh 29.89 in1012.2 mb - 0.00 in0.0 mm 0.00 in0.0 mm
07:15 AM 48.8°F9.3°C 35.5°F1.9°C 60% 2.3 mph S3.7 kmh S 3.5 mph5.6 kmh 29.89 in1012.2 mb - 0.00 in0.0 mm 0.00 in0.0 mm
07:20 AM 48.6°F9.2°C 35.7°F2.1°C 61% 2.3 mph S3.7 kmh S 3.5 mph5.6 kmh 29.89 in1012.2 mb - 0.00 in0.0 mm 0.00 in0.0 mm
07:25 AM 48.4°F9.1°C 36.0°F2.2°C 62% 2.3 mph SSW3.7 kmh SSW 2.3 mph3.7 kmh 29.89 in1012.2 mb - 0.00 in0.0 mm 0.00 in0.0 mm
07:30 AM 48.7°F9.3°C 36.3°F2.4°C 62% 1.2 mph SSW1.9 kmh SSW 3.5 mph5.6 kmh 29.89 in1012.2 mb - 0.00 in0.0 mm 0.00 in0.0 mm
07:35 AM 49.0°F9.4°C 36.5°F2.5°C 62% 3.5 mph SW5.6 kmh SW 4.6 mph7.4 kmh 29.89 in1012.2 mb - 0.00 in0.0 mm 0.00 in0.0 mm
07:40 AM 49.2°F9.6°C 36.7°F2.6°C 62% 3.5 mph SW5.6 kmh SW 3.5 mph5.6 kmh 29.89 in1012.2 mb - 0.00 in0.0 mm 0.00 in0.0 mm
07:45 AM 49.4°F9.7°C 37.0°F2.8°C 62% 3.5 mph SW5.6 kmh SW 3.5 mph5.6 kmh 29.89 in1012.2 mb - 0.00 in0.0 mm 0.00 in0.0 mm
07:50 AM 49.6°F9.8°C 37.5°F3.1°C 63% 2.3 mph SW3.7 kmh SW 4.6 mph7.4 kmh 29.89 in1012.2 mb - 0.00 in0.0 mm 0.00 in0.0 mm
07:55 AM 49.9°F9.9°C 37.8°F3.2°C 63% 3.5 mph SW5.6 kmh SW 5.8 mph9.3 kmh 29.89 in1012.2 mb - 0.00 in0.0 mm 0.00 in0.0 mm
08:00 AM 50.3°F10.2°C 38.2°F3.4°C 63% 3.5 mph SW5.6 kmh SW 3.5 mph5.6 kmh 29.89 in1012.2 mb - 0.00 in0.0 mm 0.00 in0.0 mm
08:05 AM 50.8°F10.4°C 38.7°F3.7°C 63% 2.3 mph SW3.7 kmh SW 3.5 mph5.6 kmh 29.89 in1012.2 mb - 0.00 in0.0 mm 0.00 in0.0 mm
08:10 AM 51.2°F10.7°C 39.0°F3.9°C 63% 2.3 mph WSW3.7 kmh WSW 3.5 mph5.6 kmh 29.89 in1012.2 mb - 0.00 in0.0 mm 0.00 in0.0 mm
08:15 AM 51.7°F10.9°C 39.1°F3.9°C 62% 2.3 mph SW3.7 kmh SW 3.5 mph5.6 kmh 29.89 in1012.2 mb - 0.00 in0.0 mm 0.00 in0.0 mm
08:20 AM 51.9°F11.1°C 39.7°F4.3°C 63% 2.3 mph SW3.7 kmh SW 3.5 mph5.6 kmh 29.89 in1012.2 mb - 0.00 in0.0 mm 0.00 in0.0 mm
08:25 AM 52.6°F11.4°C 39.9°F4.4°C 62% 1.2 mph NW1.9 kmh NW 3.5 mph5.6 kmh 29.89 in1012.2 mb - 0.00 in0.0 mm 0.00 in0.0 mm
08:30 AM 53.2°F11.8°C 40.5°F4.7°C 62% 1.2 mph SW1.9 kmh SW 3.5 mph5.6 kmh 29.88 in1011.9 mb - 0.00 in0.0 mm 0.00 in0.0 mm
08:35 AM 53.6°F12.0°C 40.9°F4.9°C 62% 2.3 mph SW3.7 kmh SW 4.6 mph7.4 kmh 29.88 in1011.9 mb - 0.00 in0.0 mm 0.00 in0.0 mm
08:40 AM 54.0°F12.2°C 40.9°F4.9°C 61% 3.5 mph WSW5.6 kmh WSW 4.6 mph7.4 kmh 29.88 in1011.9 mb - 0.00 in0.0 mm 0.00 in0.0 mm
08:45 AM 54.3°F12.4°C 40.7°F4.8°C 60% 5.8 mph WSW9.3 kmh WSW 8.1 mph13.0 kmh 29.88 in1011.9 mb - 0.00 in0.0 mm 0.00 in0.0 mm
08:50 AM 54.7°F12.6°C 41.5°F5.3°C 61% 2.3 mph WSW3.7 kmh WSW 5.8 mph9.3 kmh 29.88 in1011.9 mb - 0.00 in0.0 mm 0.00 in0.0 mm
08:55 AM 55.0°F12.8°C 41.4°F5.2°C 60% 5.8 mph SW9.3 kmh SW 9.2 mph14.8 kmh 29.88 in1011.9 mb - 0.00 in0.0 mm 0.00 in0.0 mm
09:00 AM 55.3°F12.9°C 41.6°F5.3°C 60% 3.5 mph WSW5.6 kmh WSW 5.8 mph9.3 kmh 29.88 in1011.9 mb - 0.00 in0.0 mm 0.00 in0.0 mm
09:05 AM 55.5°F13.1°C 41.9°F5.5°C 60% 5.8 mph SW9.3 kmh SW 10.4 mph16.7 kmh 29.88 in1011.9 mb - 0.00 in0.0 mm 0.00 in0.0 mm
09:10 AM 55.9°F13.3°C 42.2°F5.7°C 60% 5.8 mph WNW9.3 kmh WNW 10.4 mph16.7 kmh 29.87 in1011.5 mb - 0.00 in0.0 mm 0.00 in0.0 mm
09:15 AM 56.2°F13.4°C 42.1°F5.6°C 59% 5.8 mph W9.3 kmh W 9.2 mph14.8 kmh 29.87 in1011.5 mb - 0.00 in0.0 mm 0.00 in0.0 mm
09:20 AM 56.6°F13.7°C 42.4°F5.8°C 59% 5.8 mph W9.3 kmh W 8.1 mph13.0 kmh 29.87 in1011.5 mb - 0.00 in0.0 mm 0.00 in0.0 mm
09:25 AM 57.0°F13.9°C 42.3°F5.7°C 58% 5.8 mph WSW9.3 kmh WSW 11.5 mph18.5 kmh 29.87 in1011.5 mb - 0.00 in0.0 mm 0.00 in0.0 mm
09:30 AM 57.3°F14.1°C 42.7°F5.9°C 58% 4.6 mph WSW7.4 kmh WSW 10.4 mph16.7 kmh 29.87 in1011.5 mb - 0.00 in0.0 mm 0.00 in0.0 mm
09:35 AM 57.6°F14.2°C 42.5°F5.8°C 57% 6.9 mph WSW11.1 kmh WSW 6.9 mph11.1 kmh 29.87 in1011.5 mb - 0.00 in0.0 mm 0.00 in0.0 mm
09:40 AM 57.9°F14.4°C 42.8°F6.0°C 57% 5.8 mph W9.3 kmh W 10.4 mph16.7 kmh 29.87 in1011.5 mb - 0.00 in0.0 mm 0.00 in0.0 mm
09:45 AM 58.5°F14.7°C 42.3°F5.7°C 55% 6.9 mph SW11.1 kmh SW 9.2 mph14.8 kmh 29.87 in1011.5 mb - 0.00 in0.0 mm 0.00 in0.0 mm
09:50 AM 58.9°F14.9°C 43.2°F6.2°C 56% 6.9 mph WSW11.1 kmh WSW 9.2 mph14.8 kmh 29.87 in1011.5 mb - 0.00 in0.0 mm 0.00 in0.0 mm
09:55 AM 59.3°F15.2°C 43.2°F6.2°C 55% 4.6 mph WSW7.4 kmh WSW 4.6 mph7.4 kmh 29.87 in1011.5 mb - 0.00 in0.0 mm 0.00 in0.0 mm
10:00 AM 60.0°F15.6°C 43.8°F6.6°C 55% 5.8 mph W9.3 kmh W 6.9 mph11.1 kmh 29.86 in1011.2 mb - 0.00 in0.0 mm 0.00 in0.0 mm
10:05 AM 60.8°F16.0°C 43.6°F6.4°C 53% 6.9 mph W11.1 kmh W 9.2 mph14.8 kmh 29.86 in1011.2 mb - 0.00 in0.0 mm 0.00 in0.0 mm
10:10 AM 61.1°F16.2°C 43.8°F6.6°C 53% 4.6 mph WSW7.4 kmh WSW 4.6 mph7.4 kmh 29.86 in1011.2 mb - 0.00 in0.0 mm 0.00 in0.0 mm
10:15 AM 61.8°F16.6°C 44.0°F6.7°C 52% 3.5 mph WSW5.6 kmh WSW 8.1 mph13.0 kmh 29.86 in1011.2 mb - 0.00 in0.0 mm 0.00 in0.0 mm
10:20 AM 62.8°F17.1°C 43.9°F6.6°C 50% 5.8 mph WSW9.3 kmh WSW 6.9 mph11.1 kmh 29.86 in1011.2 mb - 0.00 in0.0 mm 0.00 in0.0 mm
10:25 AM 63.2°F17.3°C 43.2°F6.2°C 48% 10.4 mph WSW16.7 kmh WSW 11.5 mph18.5 kmh 29.86 in1011.2 mb - 0.00 in0.0 mm 0.00 in0.0 mm
10:30 AM 63.6°F17.6°C 43.0°F6.1°C 47% 8.1 mph W13.0 kmh W 11.5 mph18.5 kmh 29.85 in1010.8 mb - 0.00 in0.0 mm 0.00 in0.0 mm
10:35 AM 64.0°F17.8°C 43.4°F6.3°C 47% 6.9 mph WSW11.1 kmh WSW 9.2 mph14.8 kmh 29.85 in1010.8 mb - 0.00 in0.0 mm 0.00 in0.0 mm
10:40 AM 64.2°F17.9°C 43.0°F6.1°C 46% 6.9 mph WSW11.1 kmh WSW 11.5 mph18.5 kmh 29.85 in1010.8 mb - 0.00 in0.0 mm 0.00 in0.0 mm
10:45 AM 64.7°F18.2°C 43.4°F6.3°C 46% 6.9 mph SW11.1 kmh SW 10.4 mph16.7 kmh 29.85 in1010.8 mb - 0.00 in0.0 mm 0.00 in0.0 mm
10:50 AM 65.2°F18.4°C 43.9°F6.6°C 46% 5.8 mph WSW9.3 kmh WSW 10.4 mph16.7 kmh 29.84 in1010.5 mb - 0.00 in0.0 mm 0.00 in0.0 mm
10:55 AM 65.6°F18.7°C 43.7°F6.5°C 45% 4.6 mph W7.4 kmh W 9.2 mph14.8 kmh 29.84 in1010.5 mb - 0.00 in0.0 mm 0.00 in0.0 mm
11:00 AM 66.1°F18.9°C 43.5°F6.4°C 44% 3.5 mph SW5.6 kmh SW 9.2 mph14.8 kmh 29.84 in1010.5 mb - 0.00 in0.0 mm 0.00 in0.0 mm
11:05 AM 66.5°F19.2°C 43.9°F6.6°C 44% 5.8 mph W9.3 kmh W 11.5 mph18.5 kmh 29.84 in1010.5 mb - 0.00 in0.0 mm 0.00 in0.0 mm
11:10 AM 66.5°F19.2°C 43.3°F6.3°C 43% 5.8 mph W9.3 kmh W 9.2 mph14.8 kmh 29.84 in1010.5 mb - 0.00 in0.0 mm 0.00 in0.0 mm
11:15 AM 66.9°F19.4°C 43.0°F6.1°C 42% 5.8 mph WSW9.3 kmh WSW 11.5 mph18.5 kmh 29.84 in1010.5 mb - 0.00 in0.0 mm 0.00 in0.0 mm
11:20 AM 67.1°F19.5°C 42.6°F5.9°C 41% 4.6 mph W7.4 kmh W 4.6 mph7.4 kmh 29.84 in1010.5 mb - 0.00 in0.0 mm 0.00 in0.0 mm
11:25 AM 67.4°F19.7°C 41.6°F5.3°C 39% 8.1 mph W13.0 kmh W 11.5 mph18.5 kmh 29.83 in1010.2 mb - 0.00 in0.0 mm 0.00 in0.0 mm
11:30 AM 67.4°F19.7°C 41.6°F5.3°C 39% 5.8 mph NW9.3 kmh NW 8.1 mph13.0 kmh 29.83 in1010.2 mb - 0.00 in0.0 mm 0.00 in0.0 mm
11:35 AM 68.1°F20.1°C 41.5°F5.3°C 38% 6.9 mph SW11.1 kmh SW 12.7 mph20.4 kmh 29.83 in1010.2 mb - 0.00 in0.0 mm 0.00 in0.0 mm
11:40 AM 68.3°F20.2°C 41.7°F5.4°C 38% 5.8 mph WSW9.3 kmh WSW 11.5 mph18.5 kmh 29.82 in1009.8 mb - 0.00 in0.0 mm 0.00 in0.0 mm
11:45 AM 68.5°F20.3°C 41.2°F5.1°C 37% 5.8 mph WSW9.3 kmh WSW 11.5 mph18.5 kmh 29.82 in1009.8 mb - 0.00 in0.0 mm 0.00 in0.0 mm
11:50 AM 68.5°F20.3°C 40.5°F4.7°C 36% 9.2 mph WSW14.8 kmh WSW 11.5 mph18.5 kmh 29.82 in1009.8 mb - 0.00 in0.0 mm 0.00 in0.0 mm
11:55 AM 68.8°F20.4°C 40.8°F4.9°C 36% 8.1 mph SW13.0 kmh SW 11.5 mph18.5 kmh 29.82 in1009.8 mb - 0.00 in0.0 mm 0.00 in0.0 mm
12:00 PM 69.1°F20.6°C 41.0°F5.0°C 36% 4.6 mph WSW7.4 kmh WSW 6.9 mph11.1 kmh 29.81 in1009.5 mb - 0.00 in0.0 mm 0.00 in0.0 mm
12:05 PM 69.5°F20.8°C 40.6°F4.8°C 35% 8.1 mph SW13.0 kmh SW 11.5 mph18.5 kmh 29.81 in1009.5 mb - 0.00 in0.0 mm 0.00 in0.0 mm
12:10 PM 69.3°F20.7°C 39.7°F4.3°C 34% 9.2 mph SW14.8 kmh SW 11.5 mph18.5 kmh 29.80 in1009.1 mb - 0.00 in0.0 mm 0.00 in0.0 mm
12:15 PM 69.3°F20.7°C 40.4°F4.7°C 35% 8.1 mph WSW13.0 kmh WSW 10.4 mph16.7 kmh 29.80 in1009.1 mb - 0.00 in0.0 mm 0.00 in0.0 mm
12:20 PM 69.7°F20.9°C 40.1°F4.5°C 34% 8.1 mph WSW13.0 kmh WSW 8.1 mph13.0 kmh 29.80 in1009.1 mb - 0.00 in0.0 mm 0.00 in0.0 mm
12:25 PM 70.0°F21.1°C 39.6°F4.2°C 33% 6.9 mph W11.1 kmh W 8.1 mph13.0 kmh 29.80 in1009.1 mb - 0.00 in0.0 mm 0.00 in0.0 mm
12:30 PM 70.3°F21.3°C 40.6°F4.8°C 34% 6.9 mph W11.1 kmh W 11.5 mph18.5 kmh 29.79 in1008.8 mb - 0.00 in0.0 mm 0.00 in0.0 mm
12:35 PM 70.7°F21.5°C 41.7°F5.4°C 35% 9.2 mph SW14.8 kmh SW 11.5 mph18.5 kmh 29.79 in1008.8 mb - 0.00 in0.0 mm 0.00 in0.0 mm
12:40 PM 70.6°F21.4°C 41.6°F5.3°C 35% 6.9 mph WSW11.1 kmh WSW 11.5 mph18.5 kmh 29.79 in1008.8 mb - 0.00 in0.0 mm 0.00 in0.0 mm
12:45 PM 70.7°F21.5°C 40.1°F4.5°C 33% 4.6 mph WSW7.4 kmh WSW 6.9 mph11.1 kmh 29.79 in1008.8 mb - 0.00 in0.0 mm 0.00 in0.0 mm
12:50 PM 70.7°F21.5°C 40.2°F4.6°C 33% 6.9 mph W11.1 kmh W 11.5 mph18.5 kmh 29.79 in1008.8 mb - 0.00 in0.0 mm 0.00 in0.0 mm
12:55 PM 70.8°F21.6°C 40.2°F4.6°C 33% 8.1 mph WSW13.0 kmh WSW 15.0 mph24.1 kmh 29.78 in1008.5 mb - 0.00 in0.0 mm 0.00 in0.0 mm
01:00 PM 71.1°F21.7°C 40.5°F4.7°C 33% 9.2 mph SW14.8 kmh SW 16.1 mph25.9 kmh 29.78 in1008.5 mb - 0.00 in0.0 mm 0.00 in0.0 mm
01:05 PM 71.1°F21.7°C 40.5°F4.7°C 33% 8.1 mph W13.0 kmh W 12.7 mph20.4 kmh 29.78 in1008.5 mb - 0.00 in0.0 mm 0.00 in0.0 mm
01:10 PM 71.3°F21.8°C 40.7°F4.8°C 33% 8.1 mph WSW13.0 kmh WSW 11.5 mph18.5 kmh 29.77 in1008.1 mb - 0.00 in0.0 mm 0.00 in0.0 mm
01:15 PM 71.5°F21.9°C 40.9°F4.9°C 33% 9.2 mph SW14.8 kmh SW 12.7 mph20.4 kmh 29.77 in1008.1 mb - 0.00 in0.0 mm 0.00 in0.0 mm
01:20 PM 71.7°F22.1°C 39.5°F4.2°C 31% 8.1 mph SW13.0 kmh SW 12.7 mph20.4 kmh 29.76 in1007.8 mb - 0.00 in0.0 mm 0.00 in0.0 mm
01:25 PM 71.7°F22.1°C 39.4°F4.1°C 31% 5.8 mph SW9.3 kmh SW 10.4 mph16.7 kmh 29.76 in1007.8 mb - 0.00 in0.0 mm 0.00 in0.0 mm
01:30 PM 72.1°F22.3°C 38.9°F3.8°C 30% 8.1 mph SW13.0 kmh SW 9.2 mph14.8 kmh 29.76 in1007.8 mb - 0.00 in0.0 mm 0.00 in0.0 mm
01:35 PM 72.2°F22.3°C 39.9°F4.4°C 31% 5.8 mph WSW9.3 kmh WSW 11.5 mph18.5 kmh 29.76 in1007.8 mb - 0.00 in0.0 mm 0.00 in0.0 mm
01:40 PM 72.3°F22.4°C 40.0°F4.4°C 31% 6.9 mph SW11.1 kmh SW 8.1 mph13.0 kmh 29.75 in1007.5 mb - 0.00 in0.0 mm 0.00 in0.0 mm
01:45 PM 72.4°F22.4°C 40.0°F4.4°C 31% 10.4 mph WSW16.7 kmh WSW 12.7 mph20.4 kmh 29.74 in1007.1 mb - 0.00 in0.0 mm 0.00 in0.0 mm
01:50 PM 72.4°F22.4°C 39.2°F4.0°C 30% 10.4 mph WSW16.7 kmh WSW 12.7 mph20.4 kmh 29.74 in1007.1 mb - 0.00 in0.0 mm 0.00 in0.0 mm
01:55 PM 72.5°F22.5°C 39.3°F4.1°C 30% 8.1 mph SW13.0 kmh SW 11.5 mph18.5 kmh 29.74 in1007.1 mb - 0.00 in0.0 mm 0.00 in0.0 mm
02:00 PM 72.7°F22.6°C 39.5°F4.2°C 30% 8.1 mph WSW13.0 kmh WSW 11.5 mph18.5 kmh 29.73 in1006.8 mb - 0.00 in0.0 mm 0.00 in0.0 mm
02:05 PM 72.8°F22.7°C 39.5°F4.2°C 30% 8.1 mph SW13.0 kmh SW 11.5 mph18.5 kmh 29.73 in1006.8 mb - 0.00 in0.0 mm 0.00 in0.0 mm
02:10 PM 72.8°F22.7°C 38.7°F3.7°C 29% 8.1 mph WSW13.0 kmh WSW 13.8 mph22.2 kmh 29.73 in1006.8 mb - 0.00 in0.0 mm 0.00 in0.0 mm
02:15 PM 73.0°F22.8°C 39.7°F4.3°C 30% 10.4 mph WSW16.7 kmh WSW 11.5 mph18.5 kmh 29.72 in1006.4 mb - 0.00 in0.0 mm 0.00 in0.0 mm
02:20 PM 73.0°F22.8°C 38.9°F3.8°C 29% 10.4 mph WSW16.7 kmh WSW 12.7 mph20.4 kmh 29.72 in1006.4 mb - 0.00 in0.0 mm 0.00 in0.0 mm
02:25 PM 73.4°F23.0°C 39.2°F4.0°C 29% 6.9 mph WSW11.1 kmh WSW 10.4 mph16.7 kmh 29.72 in1006.4 mb - 0.00 in0.0 mm 0.00 in0.0 mm
02:30 PM 73.7°F23.2°C 39.5°F4.2°C 29% 9.2 mph W14.8 kmh W 11.5 mph18.5 kmh 29.72 in1006.4 mb - 0.00 in0.0 mm 0.00 in0.0 mm
02:35 PM 73.7°F23.2°C 39.5°F4.2°C 29% 10.4 mph SW16.7 kmh SW 17.3 mph27.8 kmh 29.71 in1006.1 mb - 0.00 in0.0 mm 0.00 in0.0 mm
02:40 PM 73.6°F23.1°C 41.1°F5.1°C 31% 5.8 mph WSW9.3 kmh WSW 11.5 mph18.5 kmh 29.71 in1006.1 mb - 0.00 in0.0 mm 0.00 in0.0 mm
02:45 PM 73.7°F23.2°C 41.2°F5.1°C 31% 8.1 mph WSW13.0 kmh WSW 13.8 mph22.2 kmh 29.71 in1006.1 mb - 0.00 in0.0 mm 0.00 in0.0 mm
02:50 PM 73.6°F23.1°C 41.1°F5.1°C 31% 11.5 mph WSW18.5 kmh WSW 16.1 mph25.9 kmh 29.70 in1005.8 mb - 0.00 in0.0 mm 0.00 in0.0 mm
02:55 PM 73.7°F23.2°C 41.2°F5.1°C 31% 9.2 mph SW14.8 kmh SW 13.8 mph22.2 kmh 29.70 in1005.8 mb - 0.00 in0.0 mm 0.00 in0.0 mm
03:00 PM 73.7°F23.2°C 41.2°F5.1°C 31% 11.5 mph WSW18.5 kmh WSW 15.0 mph24.1 kmh 29.70 in1005.8 mb - 0.00 in0.0 mm 0.00 in0.0 mm
03:05 PM 73.7°F23.2°C 41.1°F5.1°C 31% 8.1 mph SW13.0 kmh SW 16.1 mph25.9 kmh 29.70 in1005.8 mb - 0.00 in0.0 mm 0.00 in0.0 mm
03:10 PM 73.8°F23.2°C 42.0°F5.6°C 32% 5.8 mph WSW9.3 kmh WSW 9.2 mph14.8 kmh 29.69 in1005.4 mb - 0.00 in0.0 mm 0.00 in0.0 mm
03:15 PM 73.8°F23.2°C 41.3°F5.2°C 31% 6.9 mph SW11.1 kmh SW 11.5 mph18.5 kmh 29.69 in1005.4 mb - 0.00 in0.0 mm 0.00 in0.0 mm
03:20 PM 73.6°F23.1°C 41.1°F5.1°C 31% 8.1 mph WSW13.0 kmh WSW 15.0 mph24.1 kmh 29.69 in1005.4 mb - 0.00 in0.0 mm 0.00 in0.0 mm
03:25 PM 73.8°F23.2°C 40.4°F4.7°C 30% 6.9 mph WSW11.1 kmh WSW 9.2 mph14.8 kmh 29.68 in1005.1 mb - 0.00 in0.0 mm 0.00 in0.0 mm
03:30 PM 73.8°F23.2°C 42.1°F5.6°C 32% 8.1 mph SW13.0 kmh SW 11.5 mph18.5 kmh 29.68 in1005.1 mb - 0.00 in0.0 mm 0.00 in0.0 mm
03:35 PM 73.7°F23.2°C 42.0°F5.6°C 32% 9.2 mph WSW14.8 kmh WSW 12.7 mph20.4 kmh 29.68 in1005.1 mb - 0.00 in0.0 mm 0.00 in0.0 mm
03:40 PM 73.6°F23.1°C 41.9°F5.5°C 32% 8.1 mph WSW13.0 kmh WSW 10.4 mph16.7 kmh 29.68 in1005.1 mb - 0.00 in0.0 mm 0.00 in0.0 mm
03:45 PM 73.5°F23.1°C 42.6°F5.9°C 33% 10.4 mph SW16.7 kmh SW 15.0 mph24.1 kmh 29.68 in1005.1 mb - 0.00 in0.0 mm 0.00 in0.0 mm
03:50 PM 73.4°F23.0°C 43.3°F6.3°C 34% 6.9 mph WSW11.1 kmh WSW 9.2 mph14.8 kmh 29.68 in1005.1 mb - 0.00 in0.0 mm 0.00 in0.0 mm
03:55 PM 73.5°F23.1°C 42.6°F5.9°C 33% 10.4 mph SW16.7 kmh SW 17.3 mph27.8 kmh 29.67 in1004.7 mb - 0.00 in0.0 mm 0.00 in0.0 mm
04:00 PM 73.4°F23.0°C 44.1°F6.7°C 35% 9.2 mph SW14.8 kmh SW 18.4 mph29.6 kmh 29.67 in1004.7 mb - 0.00 in0.0 mm 0.00 in0.0 mm
04:05 PM 73.1°F22.8°C 43.1°F6.2°C 34% 8.1 mph SW13.0 kmh SW 11.5 mph18.5 kmh 29.67 in1004.7 mb - 0.00 in0.0 mm 0.00 in0.0 mm
04:10 PM 73.0°F22.8°C 44.5°F6.9°C 36% 8.1 mph WSW13.0 kmh WSW 13.8 mph22.2 kmh 29.66 in1004.4 mb - 0.00 in0.0 mm 0.00 in0.0 mm
04:15 PM 72.8°F22.7°C 45.7°F7.6°C 38% 9.2 mph WSW14.8 kmh WSW 11.5 mph18.5 kmh 29.66 in1004.4 mb - 0.00 in0.0 mm 0.00 in0.0 mm
04:20 PM 72.6°F22.6°C 44.8°F7.1°C 37% 8.1 mph W13.0 kmh W 11.5 mph18.5 kmh 29.67 in1004.7 mb - 0.00 in0.0 mm 0.00 in0.0 mm
04:25 PM 72.3°F22.4°C 45.3°F7.4°C 38% 9.2 mph WSW14.8 kmh WSW 15.0 mph24.1 kmh 29.67 in1004.7 mb - 0.00 in0.0 mm 0.00 in0.0 mm
04:30 PM 72.1°F22.3°C 45.7°F7.6°C 39% 11.5 mph SW18.5 kmh SW 17.3 mph27.8 kmh 29.67 in1004.7 mb - 0.00 in0.0 mm 0.00 in0.0 mm
04:35 PM 71.9°F22.2°C 46.2°F7.9°C 40% 10.4 mph WSW16.7 kmh WSW 17.3 mph27.8 kmh 29.67 in1004.7 mb - 0.00 in0.0 mm 0.00 in0.0 mm
04:40 PM 71.6°F22.0°C 46.0°F7.8°C 40% 8.1 mph WSW13.0 kmh WSW 9.2 mph14.8 kmh 29.66 in1004.4 mb - 0.00 in0.0 mm 0.00 in0.0 mm
04:45 PM 71.4°F21.9°C 46.5°F8.1°C 41% 6.9 mph W11.1 kmh W 10.4 mph16.7 kmh 29.67 in1004.7 mb - 0.00 in0.0 mm 0.00 in0.0 mm
04:50 PM 71.1°F21.7°C 46.8°F8.2°C 42% 3.5 mph NNW5.6 kmh NNW 6.9 mph11.1 kmh 29.67 in1004.7 mb - 0.00 in0.0 mm 0.00 in0.0 mm
04:55 PM 70.5°F21.4°C 46.3°F7.9°C 42% 8.1 mph NW13.0 kmh NW 11.5 mph18.5 kmh 29.67 in1004.7 mb - 0.00 in0.0 mm 0.00 in0.0 mm
05:00 PM 70.1°F21.2°C 46.5°F8.1°C 43% 8.1 mph NW13.0 kmh NW 11.5 mph18.5 kmh 29.67 in1004.7 mb - 0.00 in0.0 mm 0.00 in0.0 mm
05:05 PM 69.8°F21.0°C 36.1°F2.3°C 29% 5.8 mph N9.3 kmh N 11.5 mph18.5 kmh 29.67 in1004.7 mb - 0.00 in0.0 mm 0.00 in0.0 mm
05:10 PM 69.9°F21.1°C 30.4°F-0.9°C 23% 5.8 mph NNW9.3 kmh NNW 9.2 mph14.8 kmh 29.67 in1004.7 mb - 0.00 in0.0 mm 0.00 in0.0 mm
05:15 PM 70.2°F21.2°C 37.3°F2.9°C 30% 4.6 mph W7.4 kmh W 6.9 mph11.1 kmh 29.67 in1004.7 mb - 0.00 in0.0 mm 0.00 in0.0 mm
05:20 PM 70.1°F21.2°C 41.9°F5.5°C 36% 8.1 mph WSW13.0 kmh WSW 12.7 mph20.4 kmh 29.67 in1004.7 mb - 0.00 in0.0 mm 0.00 in0.0 mm
05:25 PM 69.9°F21.1°C 44.5°F6.9°C 40% 4.6 mph WSW7.4 kmh WSW 3.5 mph5.6 kmh 29.67 in1004.7 mb - 0.00 in0.0 mm 0.00 in0.0 mm
05:30 PM 69.6°F20.9°C 45.5°F7.5°C 42% 4.6 mph WSW7.4 kmh WSW 8.1 mph13.0 kmh 29.67 in1004.7 mb - 0.00 in0.0 mm 0.00 in0.0 mm
05:35 PM 69.3°F20.7°C 42.6°F5.9°C 38% 5.8 mph W9.3 kmh W 15.0 mph24.1 kmh 29.66 in1004.4 mb - 0.00 in0.0 mm 0.00 in0.0 mm
05:40 PM 69.1°F20.6°C 35.5°F1.9°C 29% 5.8 mph W9.3 kmh W 11.5 mph18.5 kmh 29.67 in1004.7 mb - 0.00 in0.0 mm 0.00 in0.0 mm
05:45 PM 69.0°F20.6°C 30.7°F-0.7°C 24% 4.6 mph NNW7.4 kmh NNW 8.1 mph13.0 kmh 29.67 in1004.7 mb - 0.00 in0.0 mm 0.00 in0.0 mm
05:50 PM 69.0°F20.6°C 28.6°F-1.9°C 22% 3.5 mph W5.6 kmh W 5.8 mph9.3 kmh 29.66 in1004.4 mb - 0.00 in0.0 mm 0.00 in0.0 mm
05:55 PM 69.2°F20.7°C 27.6°F-2.4°C 21% 4.6 mph NW7.4 kmh NW 5.8 mph9.3 kmh 29.67 in1004.7 mb - 0.00 in0.0 mm 0.00 in0.0 mm
06:00 PM 69.2°F20.7°C 26.4°F-3.1°C 20% 3.5 mph WSW5.6 kmh WSW 5.8 mph9.3 kmh 29.67 in1004.7 mb - 0.00 in0.0 mm 0.00 in0.0 mm
06:05 PM 69.2°F20.7°C 26.4°F-3.1°C 20% 9.2 mph NNW14.8 kmh NNW 16.1 mph25.9 kmh 29.67 in1004.7 mb - 0.00 in0.0 mm 0.00 in0.0 mm
06:10 PM 68.9°F20.5°C 24.9°F-3.9°C 19% 9.2 mph N14.8 kmh N 12.7 mph20.4 kmh 29.67 in1004.7 mb - 0.00 in0.0 mm 0.00 in0.0 mm
06:15 PM 68.6°F20.3°C 24.6°F-4.1°C 19% 10.4 mph NW16.7 kmh NW 11.5 mph18.5 kmh 29.68 in1005.1 mb - 0.00 in0.0 mm 0.00 in0.0 mm
06:20 PM 68.2°F20.1°C 25.6°F-3.6°C 20% 6.9 mph NW11.1 kmh NW 9.2 mph14.8 kmh 29.68 in1005.1 mb - 0.00 in0.0 mm 0.00 in0.0 mm
06:25 PM 68.0°F20.0°C 25.4°F-3.7°C 20% 8.1 mph NW13.0 kmh NW 16.1 mph25.9 kmh 29.68 in1005.1 mb - 0.00 in0.0 mm 0.00 in0.0 mm
06:30 PM 67.5°F19.7°C 23.8°F-4.6°C 19% 11.5 mph NW18.5 kmh NW 23.0 mph37.0 kmh 29.68 in1005.1 mb - 0.00 in0.0 mm 0.00 in0.0 mm
06:35 PM 67.0°F19.4°C 24.5°F-4.2°C 20% 9.2 mph NNW14.8 kmh NNW 13.8 mph22.2 kmh 29.68 in1005.1 mb - 0.00 in0.0 mm 0.00 in0.0 mm
06:40 PM 66.5°F19.2°C 25.3°F-3.7°C 21% 11.5 mph NNW18.5 kmh NNW 17.3 mph27.8 kmh 29.68 in1005.1 mb - 0.00 in0.0 mm 0.00 in0.0 mm
06:45 PM 66.0°F18.9°C 24.9°F-3.9°C 21% 13.8 mph NNW22.2 kmh NNW 19.6 mph31.5 kmh 29.68 in1005.1 mb - 0.00 in0.0 mm 0.00 in0.0 mm
06:50 PM 65.6°F18.7°C 24.6°F-4.1°C 21% 15.0 mph N24.1 kmh N 21.9 mph35.2 kmh 29.68 in1005.1 mb - 0.00 in0.0 mm 0.00 in0.0 mm
06:55 PM 65.2°F18.4°C 25.4°F-3.7°C 22% 15.0 mph N24.1 kmh N 19.6 mph31.5 kmh 29.68 in1005.1 mb - 0.00 in0.0 mm 0.00 in0.0 mm
07:00 PM 64.8°F18.2°C 25.1°F-3.8°C 22% 17.3 mph N27.8 kmh N 20.7 mph33.3 kmh 29.69 in1005.4 mb - 0.00 in0.0 mm 0.00 in0.0 mm
07:05 PM 64.3°F17.9°C 24.6°F-4.1°C 22% 16.1 mph NNW25.9 kmh NNW 25.3 mph40.7 kmh 29.69 in1005.4 mb - 0.00 in0.0 mm 0.00 in0.0 mm
07:10 PM 63.9°F17.7°C 24.2°F-4.3°C 22% 12.7 mph NNW20.4 kmh NNW 13.8 mph22.2 kmh 29.70 in1005.8 mb - 0.00 in0.0 mm 0.00 in0.0 mm
07:15 PM 63.5°F17.5°C 25.0°F-3.9°C 23% 12.7 mph NNW20.4 kmh NNW 15.0 mph24.1 kmh 29.70 in1005.8 mb - 0.00 in0.0 mm 0.00 in0.0 mm
07:20 PM 63.1°F17.3°C 24.7°F-4.1°C 23% 12.7 mph NNW20.4 kmh NNW 16.1 mph25.9 kmh 29.70 in1005.8 mb - 0.00 in0.0 mm 0.00 in0.0 mm
07:25 PM 62.7°F17.1°C 24.3°F-4.3°C 23% 13.8 mph N22.2 kmh N 18.4 mph29.6 kmh 29.71 in1006.1 mb - 0.00 in0.0 mm 0.00 in0.0 mm
07:30 PM 62.2°F16.8°C 23.9°F-4.5°C 23% 11.5 mph NNW18.5 kmh NNW 17.3 mph27.8 kmh 29.72 in1006.4 mb - 0.00 in0.0 mm 0.00 in0.0 mm
07:35 PM 61.9°F16.6°C 23.7°F-4.6°C 23% 16.1 mph N25.9 kmh N 20.7 mph33.3 kmh 29.72 in1006.4 mb - 0.00 in0.0 mm 0.00 in0.0 mm
07:40 PM 61.7°F16.5°C 22.4°F-5.3°C 22% 13.8 mph NW22.2 kmh NW 15.0 mph24.1 kmh 29.73 in1006.8 mb - 0.00 in0.0 mm 0.00 in0.0 mm
07:45 PM 61.4°F16.3°C 21.1°F-6.1°C 21% 15.0 mph NNW24.1 kmh NNW 18.4 mph29.6 kmh 29.73 in1006.8 mb - 0.00 in0.0 mm 0.00 in0.0 mm
07:50 PM 61.2°F16.2°C 20.9°F-6.2°C 21% 15.0 mph NNW24.1 kmh NNW 26.5 mph42.6 kmh 29.73 in1006.8 mb - 0.00 in0.0 mm 0.00 in0.0 mm
07:55 PM 61.1°F16.2°C 19.6°F-6.9°C 20% 12.7 mph NNW20.4 kmh NNW 15.0 mph24.1 kmh 29.73 in1006.8 mb - 0.00 in0.0 mm 0.00 in0.0 mm
08:00 PM 60.8°F16.0°C 20.6°F-6.3°C 21% 12.7 mph NNW20.4 kmh NNW 19.6 mph31.5 kmh 29.73 in1006.8 mb - 0.00 in0.0 mm 0.00 in0.0 mm
08:05 PM 60.5°F15.8°C 19.2°F-7.1°C 20% 11.5 mph NNW18.5 kmh NNW 16.1 mph25.9 kmh 29.74 in1007.1 mb - 0.00 in0.0 mm 0.00 in0.0 mm
08:10 PM 60.2°F15.7°C 18.9°F-7.3°C 20% 10.4 mph NNW16.7 kmh NNW 10.4 mph16.7 kmh 29.74 in1007.1 mb - 0.00 in0.0 mm 0.00 in0.0 mm
08:15 PM 60.0°F15.6°C 18.8°F-7.3°C 20% 12.7 mph NNW20.4 kmh NNW 19.6 mph31.5 kmh 29.74 in1007.1 mb - 0.00 in0.0 mm 0.00 in0.0 mm
08:20 PM 59.8°F15.4°C 17.4°F-8.1°C 19% 12.7 mph NNW20.4 kmh NNW 16.1 mph25.9 kmh 29.74 in1007.1 mb - 0.00 in0.0 mm 0.00 in0.0 mm
08:25 PM 59.6°F15.3°C 17.2°F-8.2°C 19% 12.7 mph NNW20.4 kmh NNW 16.1 mph25.9 kmh 29.75 in1007.5 mb - 0.00 in0.0 mm 0.00 in0.0 mm
08:30 PM 59.4°F15.2°C 17.1°F-8.3°C 19% 13.8 mph NNW22.2 kmh NNW 20.7 mph33.3 kmh 29.75 in1007.5 mb - 0.00 in0.0 mm 0.00 in0.0 mm
08:35 PM 59.3°F15.2°C 15.7°F-9.1°C 18% 13.8 mph NNW22.2 kmh NNW 19.6 mph31.5 kmh 29.75 in1007.5 mb - 0.00 in0.0 mm 0.00 in0.0 mm
08:40 PM 59.1°F15.1°C 16.8°F-8.4°C 19% 11.5 mph NNW18.5 kmh NNW 18.4 mph29.6 kmh 29.75 in1007.5 mb - 0.00 in0.0 mm 0.00 in0.0 mm
08:45 PM 59.0°F15.0°C 16.7°F-8.5°C 19% 11.5 mph NNW18.5 kmh NNW 16.1 mph25.9 kmh 29.76 in1007.8 mb - 0.00 in0.0 mm 0.00 in0.0 mm
08:50 PM 58.7°F14.8°C 16.5°F-8.6°C 19% 9.2 mph NNW14.8 kmh NNW 13.8 mph22.2 kmh 29.77 in1008.1 mb - 0.00 in0.0 mm 0.00 in0.0 mm
08:55 PM 58.5°F14.7°C 16.3°F-8.7°C 19% 9.2 mph NNW14.8 kmh NNW 13.8 mph22.2 kmh 29.77 in1008.1 mb - 0.00 in0.0 mm 0.00 in0.0 mm
09:00 PM 58.3°F14.6°C 17.3°F-8.2°C 20% 9.2 mph N14.8 kmh N 13.8 mph22.2 kmh 29.77 in1008.1 mb - 0.00 in0.0 mm 0.00 in0.0 mm
09:05 PM 58.1°F14.5°C 16.0°F-8.9°C 19% 10.4 mph N16.7 kmh N 12.7 mph20.4 kmh 29.77 in1008.1 mb - 0.00 in0.0 mm 0.00 in0.0 mm
09:10 PM 58.0°F14.4°C 15.9°F-8.9°C 19% 11.5 mph NNW18.5 kmh NNW 13.8 mph22.2 kmh 29.78 in1008.5 mb - 0.00 in0.0 mm 0.00 in0.0 mm
09:15 PM 57.9°F14.4°C 15.8°F-9.0°C 19% 11.5 mph N18.5 kmh N 18.4 mph29.6 kmh 29.78 in1008.5 mb - 0.00 in0.0 mm 0.00 in0.0 mm
09:20 PM 57.8°F14.3°C 15.7°F-9.1°C 19% 10.4 mph NNW16.7 kmh NNW 13.8 mph22.2 kmh 29.78 in1008.5 mb - 0.00 in0.0 mm 0.00 in0.0 mm
09:25 PM 57.8°F14.3°C 15.7°F-9.1°C 19% 10.4 mph NW16.7 kmh NW 13.8 mph22.2 kmh 29.78 in1008.5 mb - 0.00 in0.0 mm 0.00 in0.0 mm
09:30 PM 57.7°F14.3°C 15.7°F-9.1°C 19% 11.5 mph NNW18.5 kmh NNW 15.0 mph24.1 kmh 29.78 in1008.5 mb - 0.00 in0.0 mm 0.00 in0.0 mm
09:35 PM 57.7°F14.3°C 15.7°F-9.1°C 19% 11.5 mph NNW18.5 kmh NNW 13.8 mph22.2 kmh 29.78 in1008.5 mb - 0.00 in0.0 mm 0.00 in0.0 mm
09:40 PM 57.6°F14.2°C 15.6°F-9.1°C 19% 12.7 mph NNW20.4 kmh NNW 16.1 mph25.9 kmh 29.79 in1008.8 mb - 0.00 in0.0 mm 0.00 in0.0 mm
09:45 PM 57.5°F14.2°C 15.5°F-9.2°C 19% 10.4 mph NW16.7 kmh NW 15.0 mph24.1 kmh 29.79 in1008.8 mb - 0.00 in0.0 mm 0.00 in0.0 mm
09:50 PM 57.5°F14.2°C 15.5°F-9.2°C 19% 12.7 mph NW20.4 kmh NW 16.1 mph25.9 kmh 29.79 in1008.8 mb - 0.00 in0.0 mm 0.00 in0.0 mm
09:55 PM 57.5°F14.2°C 15.5°F-9.2°C 19% 10.4 mph NNW16.7 kmh NNW 13.8 mph22.2 kmh 29.80 in1009.1 mb - 0.00 in0.0 mm 0.00 in0.0 mm
10:00 PM 57.4°F14.1°C 14.2°F-9.9°C 18% 11.5 mph NW18.5 kmh NW 16.1 mph25.9 kmh 29.80 in1009.1 mb - 0.00 in0.0 mm 0.00 in0.0 mm
10:05 PM 57.3°F14.1°C 15.4°F-9.2°C 19% 8.1 mph NW13.0 kmh NW 11.5 mph18.5 kmh 29.81 in1009.5 mb - 0.00 in0.0 mm 0.00 in0.0 mm
10:10 PM 57.2°F14.0°C 16.4°F-8.7°C 20% 11.5 mph NNW18.5 kmh NNW 19.6 mph31.5 kmh 29.81 in1009.5 mb - 0.00 in0.0 mm 0.00 in0.0 mm
10:15 PM 56.9°F13.8°C 16.2°F-8.8°C 20% 13.8 mph NNW22.2 kmh NNW 18.4 mph29.6 kmh 29.81 in1009.5 mb - 0.00 in0.0 mm 0.00 in0.0 mm
10:20 PM 56.7°F13.7°C 17.2°F-8.2°C 21% 9.2 mph N14.8 kmh N 16.1 mph25.9 kmh 29.82 in1009.8 mb - 0.00 in0.0 mm 0.00 in0.0 mm
10:25 PM 56.5°F13.6°C 17.0°F-8.3°C 21% 12.7 mph NNW20.4 kmh NNW 18.4 mph29.6 kmh 29.82 in1009.8 mb - 0.00 in0.0 mm 0.00 in0.0 mm
10:30 PM 56.4°F13.6°C 16.9°F-8.4°C 21% 10.4 mph NNW16.7 kmh NNW 11.5 mph18.5 kmh 29.82 in1009.8 mb - 0.00 in0.0 mm 0.00 in0.0 mm
10:35 PM 56.3°F13.5°C 17.9°F-7.8°C 22% 8.1 mph NW13.0 kmh NW 11.5 mph18.5 kmh 29.82 in1009.8 mb - 0.00 in0.0 mm 0.00 in0.0 mm
10:40 PM 56.2°F13.4°C 16.7°F-8.5°C 21% 11.5 mph NNW18.5 kmh NNW 17.3 mph27.8 kmh 29.83 in1010.2 mb - 0.00 in0.0 mm 0.00 in0.0 mm
10:45 PM 56.1°F13.4°C 16.6°F-8.6°C 21% 10.4 mph NNW16.7 kmh NNW 13.8 mph22.2 kmh 29.83 in1010.2 mb - 0.00 in0.0 mm 0.00 in0.0 mm
10:50 PM 56.1°F13.4°C 16.6°F-8.6°C 21% 11.5 mph NW18.5 kmh NW 16.1 mph25.9 kmh 29.83 in1010.2 mb - 0.00 in0.0 mm 0.00 in0.0 mm
10:55 PM 56.2°F13.4°C 16.7°F-8.5°C 21% 9.2 mph NW14.8 kmh NW 11.5 mph18.5 kmh 29.84 in1010.5 mb - 0.00 in0.0 mm 0.00 in0.0 mm
11:00 PM 56.2°F13.4°C 15.6°F-9.1°C 20% 13.8 mph NW22.2 kmh NW 17.3 mph27.8 kmh 29.84 in1010.5 mb - 0.00 in0.0 mm 0.00 in0.0 mm
11:05 PM 56.1°F13.4°C 16.6°F-8.6°C 21% 12.7 mph NW20.4 kmh NW 25.3 mph40.7 kmh 29.84 in1010.5 mb - 0.00 in0.0 mm 0.00 in0.0 mm
11:10 PM 56.0°F13.3°C 16.6°F-8.6°C 21% 15.0 mph NW24.1 kmh NW 17.3 mph27.8 kmh 29.84 in1010.5 mb - 0.00 in0.0 mm 0.00 in0.0 mm
11:15 PM 55.8°F13.2°C 16.4°F-8.7°C 21% 10.4 mph NW16.7 kmh NW 15.0 mph24.1 kmh 29.84 in1010.5 mb - 0.00 in0.0 mm 0.00 in0.0 mm
11:20 PM 55.7°F13.2°C 16.3°F-8.7°C 21% 12.7 mph NW20.4 kmh NW 13.8 mph22.2 kmh 29.85 in1010.8 mb - 0.00 in0.0 mm 0.00 in0.0 mm
11:25 PM 55.7°F13.2°C 17.4°F-8.1°C 22% 11.5 mph NW18.5 kmh NW 13.8 mph22.2 kmh 29.85 in1010.8 mb - 0.00 in0.0 mm 0.00 in0.0 mm
11:30 PM 55.6°F13.1°C 17.3°F-8.2°C 22% 9.2 mph NW14.8 kmh NW 13.8 mph22.2 kmh 29.86 in1011.2 mb - 0.00 in0.0 mm 0.00 in0.0 mm
11:35 PM 55.5°F13.1°C 17.2°F-8.2°C 22% 10.4 mph NW16.7 kmh NW 16.1 mph25.9 kmh 29.86 in1011.2 mb - 0.00 in0.0 mm 0.00 in0.0 mm
11:40 PM 55.5°F13.1°C 17.2°F-8.2°C 22% 8.1 mph NW13.0 kmh NW 11.5 mph18.5 kmh 29.86 in1011.2 mb - 0.00 in0.0 mm 0.00 in0.0 mm
11:45 PM 55.4°F13.0°C 17.2°F-8.2°C 22% 11.5 mph NW18.5 kmh NW 13.8 mph22.2 kmh 29.86 in1011.2 mb - 0.00 in0.0 mm 0.00 in0.0 mm
11:50 PM 55.4°F13.0°C 17.1°F-8.3°C 22% 9.2 mph NW14.8 kmh NW 13.8 mph22.2 kmh 29.86 in1011.2 mb - 0.00 in0.0 mm 0.00 in0.0 mm
11:55 PM 55.3°F12.9°C 17.0°F-8.3°C 22% 12.7 mph NNW20.4 kmh NNW 16.1 mph25.9 kmh 29.86 in1011.2 mb - 0.00 in0.0 mm 0.00 in0.0 mm